Riverton, CT

4:36 AM EDT on October 24, 2014 (GMT -0400)
Barnes Municipal | Change Station
CLOSE
Current Station
Airport
Location: Westfield,
Elevation: 269 ft
Nearby Weather Stations

Elev 269 ft 42.16 °N, 72.71 °W | Updated 29 minutes ago

Overcast
Overcast
49 °F
Feels Like 49 °F
N
9
Wind Variable Wind from NNW

Today
High -- | Low -- °F
--% Chance of Precip.
Yesterday
High -- | Low -- °F
Precip. -- in
7:14 AM 5:56 PM
New Moon, 0% visible
Pressure 29.73 in
Visibility 10.0 miles
Clouds Mostly Cloudy 2500 ft
Mostly Cloudy 3800 ft
Overcast 5000 ft
Dew Point 44 °F
Humidity 83%
Rainfall 0.00 in
Snow Depth Not available.
UV 0 out of 12
Pollen .10 out of 12
Ozone Good
PM2.5 Good
Flu Activity Sporadic
SPECI KBAF 240807Z 33008KT 10SM BKN025 BKN038 OVC050 09/07 A2973 RMK AO2 T00940067

More Conditions Fewer Conditions

Pressure 29.73 in
Visibility 10.0 miles
Clouds Mostly Cloudy 2500 ft
Mostly Cloudy 3800 ft
Overcast 5000 ft
Dew Point 44 °F
Humidity 83%
Rainfall 0.00 in
Snow Depth Not available.
UV 0 out of 12
Pollen .10 out of 12
Ozone Good
PM2.5 Good
Flu Activity Sporadic
SPECI KBAF 240807Z 33008KT 10SM BKN025 BKN038 OVC050 09/07 A2973 RMK AO2 T00940067

More Conditions Fewer Conditions

10-Day Weather Forecast

Almanac

Astronomy

Oct. 24, 2014 Rise Set
Actual Time 7:14 AM EDT 5:56 PM EDT
Civil Twilight 6:46 AM EDT 6:25 PM EDT
Nautical Twilight 6:13 AM EDT 6:57 PM EDT
Astronomical Twilight 5:41 AM EDT 7:30 PM EDT
Moon 7:51 AM EDT 6:34 PM EDT
Length of Visible Light 11h 39m
Length of Day
10h 41m
Tomorrow will be 2m 38s shorter.
New Moon, 0% of the Moon is Illuminated
Today
New Moon
Oct 30
First Quarter
Nov 6
Full
Nov 14
Last Quarter
Nov 22
New

Today's Extremes

State Highs State Lows

Community

WunderPhotos

Upload Photos

1,764,511 photos uploaded!

WunderBlogs® & News

Nearby

Air Quality

  Air Quality AQ Index Pollutant
Yesterday Good
OZONE
Yesterday Good
PM10
Current Good
PM2.5
Current Good
OZONE
Friday Good
PM2.5

Snow Depth

Station Depth Elevation
No new snow has been reported.

Earthquake Activity

City Distance Mag. Time & Date
No recent earthquake activity has been reported nearby.
Minimum magnitude displayed is 2.5.

Coastal Water Temperatures

Place Temperature
No Stations Reporting

Nearby Weather Stations